Terminal Aerodrome Forecast
Issued by NWS Paducah, KY

Home | Current Version | Previous Version | Text Only | Print | Product List | Glossary On
Versions: 1 2 3 4 5 6 7 8 9 10 11 12 13 14
000
FTUS43 KPAH 251100
TAFPAH
TAF
KPAH 251134Z 2512/2612 00000KT 4SM BR SCT250
      TEMPO 2512/2513 1 1/2SM BR
     FM251400 05005KT P6SM FEW030 SCT250=

USA.gov is the U.S. government's official web portal to all federal, state and local government web resources and services.